Time;durP1;ratioP1;P1;durP2;ratioP2;P2;SDS_P1;SDS_P2;PMS_P1;PMS_P2;Temp;Humidity;BMP_temperature;BMP_pressure;BME280_temperature;BME280_humidity;BME280_pressure;Samples;Min_cycle;Max_cycle;Signal;HPM_P1;HPM_P2
2023/10/12 00:01:59;;;;;;;;;;;;;;;16.28;92.82;101107.28;5051109;28;1253;-73
2023/10/12 00:04:28;;;;;;;;;;;;;;;16.26;93.73;101098.78;5050037;28;1926;-73
2023/10/12 00:06:54;;;;;;;;;;;;;;;16.26;93.67;101104.00;5045074;28;1039;-73
2023/10/12 00:09:20;;;;;;;;;;;;;;;16.23;94.32;101088.63;5051552;28;1083;-73
2023/10/12 00:11:58;;;;;;;;;;;;;;;16.22;94.06;101079.13;5044313;28;1358;-75
2023/10/12 00:14:27;;;;;;;;;;;;;;;16.22;94.20;101099.22;5027316;28;1469;-73
2023/10/12 00:16:53;;;;;;;;;;;;;;;16.19;95.08;101092.53;5040740;28;1220;-74
2023/10/12 00:19:18;;;;;;;;;;;;;;;16.19;94.95;101097.75;5043005;28;1161;-76
2023/10/12 00:21:43;;;;;;;;;;;;;;;16.18;95.12;101109.22;5039877;28;961;-73
2023/10/12 00:24:13;;;;;;;;;;;;;;;16.17;96.05;101121.47;5040992;28;1906;-74
2023/10/12 00:26:41;;;;;;;;;;;;;;;16.18;96.25;101127.53;5031366;28;1301;-73
2023/10/12 00:29:07;;;;;;;;;;;;;;;16.14;96.26;101120.94;5044954;28;1195;-73
2023/10/12 00:31:32;;;;;;;;;;;;;;;16.14;96.42;101120.94;5031536;28;1456;-74
2023/10/12 00:33:57;;;;;;;;;;;;;;;16.13;97.03;101119.31;5048602;28;1274;-73
2023/10/12 00:36:24;;;;;;;;;;;;;;;16.11;97.50;101119.44;5044920;28;1184;-73
2023/10/12 00:38:52;;;;;;;;;;;;;;;16.11;97.63;101116.81;5049260;28;1059;-75
2023/10/12 00:41:17;;;;;;;;;;;;;;;16.12;97.64;101122.91;5049318;28;1024;-73
2023/10/12 00:44:18;;;;;;;;;;;;;;;16.10;97.78;101130.06;5035076;28;1922;-73
2023/10/12 00:51:40;;;;;;;;;;;;;;;16.07;98.46;101125.16;5036538;28;1285;-73
2023/10/12 00:54:09;;;;;;;;;;;;;;;16.04;99.08;101130.69;5045669;28;1170;-73
2023/10/12 00:56:36;;;;;;;;;;;;;;;16.03;99.32;101129.06;5051737;28;1144;-73
2023/10/12 00:59:03;;;;;;;;;;;;;;;16.04;99.42;101125.47;5055596;28;990;-74
2023/10/12 01:01:31;;;;;;;;;;;;;;;16.01;99.36;101131.00;5048287;28;1209;-74
2023/10/12 01:03:56;;;;;;;;;;;;;;;16.00;99.92;101139.81;5049630;28;1894;-74
2023/10/12 01:08:57;;;;;;;;;;;;;;;15.95;100.00;101147.31;5048610;28;1095;-74
2023/10/12 01:11:36;;;;;;;;;;;;;;;15.90;100.00;101138.13;5051234;28;1143;-74
2023/10/12 01:16:44;;;;;;;;;;;;;;;15.91;100.00;101142.38;5045800;28;1369;-73
2023/10/12 01:19:10;;;;;;;;;;;;;;;15.90;100.00;101139.94;5027291;28;1567;-74
2023/10/12 01:21:38;;;;;;;;;;;;;;;15.89;100.00;101139.09;5023710;28;1516;-73
2023/10/12 01:24:12;;;;;;;;;;;;;;;15.85;100.00;101132.53;5042976;28;1902;-74
2023/10/12 01:26:38;;;;;;;;;;;;;;;15.82;100.00;101132.81;5046200;28;1035;-73
2023/10/12 01:29:03;;;;;;;;;;;;;;;15.83;100.00;101139.72;5042056;28;1237;-74
2023/10/12 01:31:29;;;;;;;;;;;;;;;15.82;100.00;101137.22;5029797;28;1184;-73
2023/10/12 01:33:57;;;;;;;;;;;;;;;15.82;100.00;101145.06;5044198;28;1088;-76
2023/10/12 01:36:23;;;;;;;;;;;;;;;15.81;100.00;101141.63;5048341;28;1011;-74
2023/10/12 01:38:50;;;;;;;;;;;;;;;15.82;100.00;101145.06;5059075;28;1163;-74
2023/10/12 01:41:24;;;;;;;;;;;;;;;15.83;100.00;101144.94;5044016;28;1168;-73
2023/10/12 01:43:50;;;;;;;;;;;;;;;15.80;100.00;101134.78;5035726;28;1906;-74
2023/10/12 01:46:21;;;;;;;;;;;;;;;15.79;100.00;101133.13;5056583;28;1105;-76
2023/10/12 01:48:49;;;;;;;;;;;;;;;15.76;100.00;101133.41;5038071;28;1312;-74
2023/10/12 01:51:16;;;;;;;;;;;;;;;15.78;100.00;101125.44;5041180;28;1185;-73
2023/10/12 01:53:42;;;;;;;;;;;;;;;15.77;100.00;101132.47;5036946;28;1224;-73
2023/10/12 01:56:09;;;;;;;;;;;;;;;15.78;100.00;101130.69;5054745;28;1067;-73
2023/10/12 01:58:35;;;;;;;;;;;;;;;15.78;100.00;101126.25;5052861;28;1205;-74
2023/10/12 02:01:07;;;;;;;;;;;;;;;15.80;100.00;101115.66;5041277;28;1641;-73
2023/10/12 02:03:33;;;;;;;;;;;;;;;15.81;100.00;101099.78;5050338;28;1977;-74
2023/10/12 02:05:58;;;;;;;;;;;;;;;15.85;100.00;101090.69;5034557;28;1498;-74
2023/10/12 02:08:40;;;;;;;;;;;;;;;15.82;100.00;101085.75;5053121;28;1227;-74
2023/10/12 02:11:09;;;;;;;;;;;;;;;15.83;100.00;101079.56;5034296;28;1240;-74
2023/10/12 02:13:34;;;;;;;;;;;;;;;15.83;100.00;101095.25;5049534;28;1324;-74
2023/10/12 02:16:01;;;;;;;;;;;;;;;15.83;100.00;101103.09;5051229;28;1155;-74
2023/10/12 02:18:27;;;;;;;;;;;;;;;15.82;100.00;101101.44;5052130;28;1104;-74
2023/10/12 02:21:11;;;;;;;;;;;;;;;15.83;100.00;101095.25;5048090;28;1163;-74
2023/10/12 02:26:40;;;;;;;;;;;;;;;15.81;100.00;101110.25;5043827;28;1027;-74
2023/10/12 02:31:38;;;;;;;;;;;;;;;15.80;100.00;101129.53;5046458;28;1031;-74
2023/10/12 02:34:04;;;;;;;;;;;;;;;15.80;100.00;101136.56;5027108;28;1208;-73
2023/10/12 02:36:31;;;;;;;;;;;;;;;15.78;100.00;101134.09;5032007;28;1389;-74
2023/10/12 02:38:59;;;;;;;;;;;;;;;15.77;100.00;101140.31;5049007;28;1091;-74
2023/10/12 02:41:24;;;;;;;;;;;;;;;15.77;100.00;101135.09;5055030;28;1136;-75
2023/10/12 02:43:54;;;;;;;;;;;;;;;15.76;100.00;101138.66;5051119;28;1955;-74
2023/10/12 02:46:22;;;;;;;;;;;;;;;15.75;100.00;101134.41;5052233;28;1188;-73
2023/10/12 02:48:50;;;;;;;;;;;;;;;15.72;100.00;101129.50;5052605;28;1073;-74
2023/10/12 02:51:17;;;;;;;;;;;;;;;15.73;100.00;101118.06;5052310;28;1135;-74
2023/10/12 02:53:42;;;;;;;;;;;;;;;15.74;100.00;101109.22;5031075;28;1294;-73
2023/10/12 02:56:07;;;;;;;;;;;;;;;15.73;100.00;101112.81;5050236;28;1220;-73
2023/10/12 02:58:32;;;;;;;;;;;;;;;15.73;100.00;101107.59;5047709;28;1154;-74
2023/10/12 03:01:13;;;;;;;;;;;;;;;15.71;100.00;101104.28;5034453;28;1211;-74
2023/10/12 03:03:39;;;;;;;;;;;;;;;15.73;100.00;101102.34;5049249;28;2009;-75
2023/10/12 03:06:08;;;;;;;;;;;;;;;15.72;100.00;101100.72;5050103;28;1167;-74
2023/10/12 03:08:46;;;;;;;;;;;;;;;15.70;100.00;101092.19;5032962;28;1345;-74
2023/10/12 03:11:12;;;;;;;;;;;;;;;15.72;100.00;101078.97;5028768;28;1203;-74
2023/10/12 03:13:40;;;;;;;;;;;;;;;15.72;100.00;101069.34;5045550;28;1134;-73
2023/10/12 03:16:21;;;;;;;;;;;;;;;15.74;100.00;101056.91;5050901;28;1536;-74
2023/10/12 03:18:53;;;;;;;;;;;;;;;15.77;100.00;101038.31;5050506;28;1058;-74
2023/10/12 03:21:19;;;;;;;;;;;;;;;15.78;100.00;101062.69;5032426;28;1313;-75
2023/10/12 03:23:46;;;;;;;;;;;;;;;15.76;100.00;101096.00;5049695;28;1961;-75
2023/10/12 03:26:48;;;;;;;;;;;;;;;15.75;100.00;101116.09;5048257;28;1276;-73
2023/10/12 03:29:18;;;;;;;;;;;;;;;15.73;100.00;101133.75;5047795;28;1225;-74
2023/10/12 03:34:35;;;;;;;;;;;;;;;15.70;100.00;101128.78;5045494;28;1100;-74
2023/10/12 03:37:04;;;;;;;;;;;;;;;15.71;100.00;101130.44;5041789;28;1400;-74
2023/10/12 03:39:31;;;;;;;;;;;;;;;15.70;100.00;101128.78;5043138;28;1291;-74
2023/10/12 03:47:14;;;;;;;;;;;;;;;15.66;100.00;101117.03;5051782;28;1110;-75
2023/10/12 03:49:57;;;;;;;;;;;;;;;15.66;100.00;101124.88;5048133;28;1215;-74
2023/10/12 03:52:39;;;;;;;;;;;;;;;15.66;100.00;101117.03;5057275;28;1154;-75
2023/10/12 04:02:41;;;;;;;;;;;;;;;15.64;100.00;101114.53;5046724;28;1310;-74
2023/10/12 04:05:17;;;;;;;;;;;;;;;15.63;100.00;101112.06;5039177;28;1894;-75
2023/10/12 04:13:09;;;;;;;;;;;;;;;15.63;100.00;101118.13;5011003;28;1157;-74
2023/10/12 04:18:18;;;;;;;;;;;;;;;15.57;100.00;101123.09;5043536;28;1138;-74
2023/10/12 04:20:43;;;;;;;;;;;;;;;15.53;100.00;101116.53;5030205;28;1249;-75
2023/10/12 04:26:08;;;;;;;;;;;;;;;15.44;100.00;101133.94;5004976;28;1202;-73
2023/10/12 04:28:35;;;;;;;;;;;;;;;15.40;100.00;101125.56;5037925;28;1136;-73
2023/10/12 04:31:32;;;;;;;;;;;;;;;15.42;100.00;101120.19;5057286;28;964;-73
2023/10/12 04:34:05;;;;;;;;;;;;;;;15.38;100.00;101119.69;5052096;28;1253;-74
2023/10/12 04:36:38;;;;;;;;;;;;;;;15.36;100.00;101123.41;5052362;28;1442;-73
2023/10/12 04:39:11;;;;;;;;;;;;;;;15.33;100.00;101119.31;5045886;28;1384;-72
2023/10/12 04:46:49;;;;;;;;;;;;;;;15.31;100.00;101134.31;5047669;28;934;-72
2023/10/12 04:51:50;;;;;;;;;;;;;;;15.29;100.00;101141.47;5047194;28;970;-74
2023/10/12 04:54:23;;;;;;;;;;;;;;;15.31;100.00;101150.00;5030978;28;1239;-73
2023/10/12 04:57:32;;;;;;;;;;;;;;;15.27;100.00;101151.25;5044377;28;1280;-74
2023/10/12 05:04:36;;;;;;;;;;;;;;;15.23;100.00;101152.50;5044226;28;2005;-73
2023/10/12 05:10:14;;;;;;;;;;;;;;;15.19;100.00;101164.22;5045743;28;1227;-73
2023/10/12 05:12:30;;;;;;;;;;;;;;;15.18;100.00;101170.41;5039745;28;1389;-74
2023/10/12 05:14:55;;;;;;;;;;;;;;;15.16;100.00;101172.38;5031089;28;1276;-73
2023/10/12 05:17:21;;;;;;;;;;;;;;;15.15;100.00;101157.66;5034657;28;1308;-75
2023/10/12 05:19:47;;;;;;;;;;;;;;;15.16;100.00;101153.25;5038590;28;1339;-74
2023/10/12 05:22:13;;;;;;;;;;;;;;;15.15;100.00;101152.44;5049877;28;1288;-75
2023/10/12 05:24:38;;;;;;;;;;;;;;;15.13;100.00;101147.34;5049902;28;1984;-73
2023/10/12 05:29:52;;;;;;;;;;;;;;;15.14;100.00;101158.63;5050280;28;1227;-73
2023/10/12 05:37:09;;;;;;;;;;;;;;;15.17;100.00;101171.41;5049655;28;1479;-74
2023/10/12 05:39:43;;;;;;;;;;;;;;;15.14;100.00;101164.69;5024645;28;1400;-75
2023/10/12 05:42:09;;;;;;;;;;;;;;;15.13;100.00;101170.84;5043437;28;920;-74
2023/10/12 05:44:34;;;;;;;;;;;;;;;15.10;100.00;101172.94;5031349;28;1959;-74
2023/10/12 05:47:00;;;;;;;;;;;;;;;15.09;100.00;101179.16;5028065;28;1191;-74
2023/10/12 05:49:25;;;;;;;;;;;;;;;15.06;100.00;101185.47;5044952;28;1181;-75
2023/10/12 05:51:51;;;;;;;;;;;;;;;15.07;100.00;101188.91;5045176;28;1407;-75
2023/10/12 05:54:19;;;;;;;;;;;;;;;15.07;100.00;101188.91;5044819;28;1035;-74
2023/10/12 05:56:45;;;;;;;;;;;;;;;15.07;100.00;101194.13;5025067;28;1767;-73
2023/10/12 05:59:12;;;;;;;;;;;;;;;15.06;100.00;101188.09;5045197;28;1595;-73
2023/10/12 06:01:38;;;;;;;;;;;;;;;15.06;100.00;101193.31;5043788;28;1325;-75
2023/10/12 06:04:05;;;;;;;;;;;;;;;15.07;100.00;101194.13;5042439;28;1902;-73
2023/10/12 06:06:34;;;;;;;;;;;;;;;15.08;100.00;101198.38;5046935;28;1274;-73
2023/10/12 06:08:59;;;;;;;;;;;;;;;15.08;100.00;101201.00;5043272;28;1436;-74
2023/10/12 06:11:26;;;;;;;;;;;;;;;15.09;100.00;101202.66;5046353;28;1032;-74
2023/10/12 06:13:52;;;;;;;;;;;;;;;15.08;100.00;101206.22;5024930;28;1715;-74
2023/10/12 06:16:17;;;;;;;;;;;;;;;15.08;100.00;101216.66;5045713;28;1429;-76
2023/10/12 06:18:46;;;;;;;;;;;;;;;15.08;100.00;101216.66;5043745;28;1188;-77
2023/10/12 06:21:17;;;;;;;;;;;;;;;15.06;100.00;101223.84;5031177;28;1257;-73
2023/10/12 06:23:44;;;;;;;;;;;;;;;15.09;100.00;101215.72;5055870;28;1968;-73
2023/10/12 06:26:17;;;;;;;;;;;;;;;15.07;100.00;101215.84;5041895;28;1004;-73
2023/10/12 06:28:42;;;;;;;;;;;;;;;15.08;100.00;101221.91;5053157;28;1342;-73
2023/10/12 06:31:08;;;;;;;;;;;;;;;15.08;100.00;101221.91;5044520;28;1104;-73
2023/10/12 06:33:33;;;;;;;;;;;;;;;15.07;100.00;101220.25;5051550;28;1279;-74
2023/10/12 06:35:58;;;;;;;;;;;;;;;15.06;100.00;101218.63;5048017;28;1519;-74
2023/10/12 06:38:38;;;;;;;;;;;;;;;15.08;100.00;101224.50;5050335;28;1153;-74
2023/10/12 06:41:28;;;;;;;;;;;;;;;15.07;100.00;101225.47;5052929;28;1217;-74
2023/10/12 06:46:15;;;;;;;;;;;;;;;15.02;100.00;101223.28;5046532;28;1130;-73
2023/10/12 06:48:44;;;;;;;;;;;;;;;15.04;100.00;101220.56;5047393;28;1064;-74
2023/10/12 06:51:16;;;;;;;;;;;;;;;15.04;100.00;101237.06;5051691;28;1092;-76
2023/10/12 06:53:51;;;;;;;;;;;;;;;15.05;100.00;101240.47;5046873;28;1241;-76
2023/10/12 06:58:46;;;;;;;;;;;;;;;15.02;100.00;101248.59;5048076;28;1261;-75
2023/10/12 07:01:26;;;;;;;;;;;;;;;15.02;100.00;101249.41;5035390;28;1322;-75
2023/10/12 07:03:52;;;;;;;;;;;;;;;15.01;100.00;101254.78;5043892;28;1921;-75
2023/10/12 07:06:17;;;;;;;;;;;;;;;15.02;100.00;101253.81;5052404;28;1156;-74
2023/10/12 07:08:46;;;;;;;;;;;;;;;15.03;100.00;101263.31;5051240;28;1389;-73
2023/10/12 07:11:11;;;;;;;;;;;;;;;15.05;100.00;101253.53;5051355;28;1336;-73
2023/10/12 07:13:39;;;;;;;;;;;;;;;15.05;100.00;101264.00;5031188;28;1401;-74
2023/10/12 07:16:08;;;;;;;;;;;;;;;15.03;100.00;101268.56;5048742;28;1033;-73
2023/10/12 07:18:42;;;;;;;;;;;;;;;15.03;100.00;101277.22;5042163;28;1422;-73
2023/10/12 07:21:20;;;;;;;;;;;;;;;15.03;100.00;101281.63;5043327;28;1129;-74
2023/10/12 07:23:45;;;;;;;;;;;;;;;15.04;100.00;101283.25;5034359;28;1902;-74
2023/10/12 07:26:13;;;;;;;;;;;;;;;15.02;100.00;101290.38;5042526;28;1021;-74
2023/10/12 07:28:41;;;;;;;;;;;;;;;14.99;100.00;101295.91;5028295;28;1397;-73
2023/10/12 07:39:17;;;;;;;;;;;;;;;15.01;100.00;101307.03;5041781;28;1017;-74
2023/10/12 07:41:49;;;;;;;;;;;;;;;15.00;100.00;101302.78;5048526;28;1247;-74
2023/10/12 07:44:15;;;;;;;;;;;;;;;14.99;100.00;101301.97;5045188;28;1910;-74
2023/10/12 07:46:42;;;;;;;;;;;;;;;14.98;100.00;101295.09;5025519;28;1368;-74
2023/10/12 07:49:25;;;;;;;;;;;;;;;14.99;100.00;101311.59;5044287;28;1228;-73
2023/10/12 07:52:53;;;;;;;;;;;;;;;14.99;100.00;101309.81;5026177;28;1284;-74
2023/10/12 07:57:13;;;;;;;;;;;;;;;14.98;100.00;101304.72;5046917;28;1251;-74
2023/10/12 07:59:38;;;;;;;;;;;;;;;15.00;100.00;101314.06;5035075;28;1345;-73
2023/10/12 08:02:08;;;;;;;;;;;;;;;15.00;100.00;101319.28;5035280;28;1289;-73
2023/10/12 08:04:34;;;;;;;;;;;;;;;14.99;100.00;101322.03;5033386;28;1894;-75
2023/10/12 08:07:00;;;;;;;;;;;;;;;14.90;100.00;101328.09;5046327;28;1061;-73
2023/10/12 08:11:51;;;;;;;;;;;;;;;14.62;100.00;101330.59;5049760;28;1347;-74
2023/10/12 08:19:39;;;;;;;;;;;;;;;14.25;100.00;101333.88;5042415;28;1512;-73
2023/10/12 08:22:09;;;;;;;;;;;;;;;14.18;100.00;101327.56;5048726;28;964;-73
2023/10/12 08:24:36;;;;;;;;;;;;;;;14.14;100.00;101336.63;5044093;28;1902;-73
2023/10/12 08:27:05;;;;;;;;;;;;;;;14.09;100.00;101338.81;5047841;28;1046;-74
2023/10/12 08:44:59;;;;;;;;;;;;;;;13.95;100.00;101347.03;5040614;28;1906;-74
2023/10/12 08:47:40;;;;;;;;;;;;;;;13.91;100.00;101343.88;5026880;28;1364;-75
2023/10/12 08:50:25;;;;;;;;;;;;;;;13.91;100.00;101350.88;5047508;28;1120;-73
2023/10/12 08:52:52;;;;;;;;;;;;;;;13.89;100.00;101326.72;5027881;28;1407;-73
2023/10/12 08:55:24;;;;;;;;;;;;;;;13.87;100.00;101318.19;5049729;28;1092;-73
2023/10/12 08:57:55;;;;;;;;;;;;;;;13.82;100.00;101319.44;5045007;28;1200;-76
2023/10/12 09:00:39;;;;;;;;;;;;;;;13.81;100.00;101320.38;5034675;28;1444;-73
2023/10/12 09:05:46;;;;;;;;;;;;;;;13.78;100.00;101333.69;5057013;28;1217;-73
2023/10/12 09:11:02;;;;;;;;;;;;;;;13.80;100.00;101338.75;5045116;28;1177;-73
2023/10/12 09:13:35;;;;;;;;;;;;;;;13.77;100.00;101334.66;5050061;28;989;-74
2023/10/12 09:16:05;;;;;;;;;;;;;;;13.81;100.00;101337.78;5029519;28;1228;-73
2023/10/12 09:18:57;;;;;;;;;;;;;;;13.81;100.00;101341.22;5046542;28;1023;-73
2023/10/12 09:24:14;;;;;;;;;;;;;;;13.87;100.00;101349.47;5049710;28;1890;-73
2023/10/12 09:26:59;;;;;;;;;;;;;;;13.89;100.00;101352.78;5046559;28;1026;-74
2023/10/12 09:29:27;;;;;;;;;;;;;;;13.90;100.00;101355.25;5045723;28;984;-74
2023/10/12 09:34:46;;;;;;;;;;;;;;;13.96;100.00;101344.28;5042860;28;1027;-74
2023/10/12 09:37:18;;;;;;;;;;;;;;;14.00;100.00;101350.06;5041607;28;1079;-74
2023/10/12 09:39:45;;;;;;;;;;;;;;;14.04;100.00;101341.00;5050231;28;1176;-73
2023/10/12 09:42:14;;;;;;;;;;;;;;;14.08;100.00;101342.38;5041445;28;1756;-74
2023/10/12 09:44:39;;;;;;;;;;;;;;;14.10;100.00;101345.69;5033126;28;1973;-73
2023/10/12 09:47:15;;;;;;;;;;;;;;;14.12;100.00;101333.34;5046165;28;1428;-74
2023/10/12 09:49:47;;;;;;;;;;;;;;;14.17;100.00;101328.53;5045775;28;1282;-74
2023/10/12 09:52:13;;;;;;;;;;;;;;;14.18;100.00;101306.72;5029065;28;1345;-73
2023/10/12 09:54:45;;;;;;;;;;;;;;;14.19;100.00;101316.19;5053638;28;1197;-74
2023/10/12 09:57:19;;;;;;;;;;;;;;;14.20;100.00;101320.44;5049116;28;1157;-73
2023/10/12 09:59:51;;;;;;;;;;;;;;;14.22;100.00;101313.31;5056638;28;1063;-74
2023/10/12 10:02:28;;;;;;;;;;;;;;;14.26;100.00;101313.84;5054477;28;1246;-75
2023/10/12 10:05:26;;;;;;;;;;;;;;;14.31;100.00;101322.09;5052032;28;1959;-74
2023/10/12 10:07:57;;;;;;;;;;;;;;;14.34;100.00;101327.88;5051007;28;1195;-75
2023/10/12 10:10:57;;;;;;;;;;;;;;;14.38;100.00;101327.56;5047289;28;1096;-74
2023/10/12 10:13:53;;;;;;;;;;;;;;;14.43;100.00;101312.34;5047858;28;1180;-75
2023/10/12 10:16:18;;;;;;;;;;;;;;;14.48;100.00;101313.59;4970859;28;1472;-74
2023/10/12 10:18:45;;;;;;;;;;;;;;;14.55;100.00;101308.63;5014470;28;1260;-73
2023/10/12 10:21:12;;;;;;;;;;;;;;;14.60;100.00;101301.22;5050861;28;1197;-74
2023/10/12 10:23:39;;;;;;;;;;;;;;;14.65;100.00;101299.00;5053723;28;1902;-74
2023/10/12 10:26:23;;;;;;;;;;;;;;;14.72;100.00;101294.06;5050216;28;1070;-74
2023/10/12 10:28:54;;;;;;;;;;;;;;;14.78;100.00;101299.53;5050046;28;1183;-74
2023/10/12 10:31:41;;;;;;;;;;;;;;;14.82;100.00;101289.63;5044704;28;1226;-75
2023/10/12 10:34:06;;;;;;;;;;;;;;;14.93;100.00;101291.25;5038209;28;1288;-74
2023/10/12 10:36:36;;;;;;;;;;;;;;;14.99;100.00;101295.91;5043725;28;1249;-74
2023/10/12 10:39:28;;;;;;;;;;;;;;;15.06;100.00;101291.75;5034014;28;1455;-74
2023/10/12 10:44:21;;;;;;;;;;;;;;;15.18;100.00;101295.84;5047446;28;1963;-74
2023/10/12 10:46:48;;;;;;;;;;;;;;;15.23;100.00;101295.41;5047427;28;1230;-75
2023/10/12 10:49:17;;;;;;;;;;;;;;;15.27;100.00;101299.41;5043556;28;1166;-73
2023/10/12 10:51:55;;;;;;;;;;;;;;;15.29;100.00;101298.28;5049148;28;1332;-72
2023/10/12 10:54:20;;;;;;;;;;;;;;;15.34;100.00;101290.00;5046426;28;1301;-75
2023/10/12 10:56:49;;;;;;;;;;;;;;;15.37;100.00;101290.56;5049292;28;1164;-75
2023/10/12 10:59:17;;;;;;;;;;;;;;;15.41;100.00;101281.44;5035561;28;1502;-73
2023/10/12 11:01:49;;;;;;;;;;;;;;;15.45;100.00;101281.16;5055674;28;1038;-73
2023/10/12 11:04:18;;;;;;;;;;;;;;;15.49;100.00;101282.50;5055892;28;1956;-73
2023/10/12 11:06:47;;;;;;;;;;;;;;;15.52;100.00;101282.19;5053145;28;1175;-74
2023/10/12 11:09:15;;;;;;;;;;;;;;;15.56;100.00;101283.56;5047781;28;1013;-74
2023/10/12 11:12:01;;;;;;;;;;;;;;;15.58;100.00;101266.75;5056259;28;1094;-73
2023/10/12 11:14:35;;;;;;;;;;;;;;;15.61;100.00;101270.88;5056671;28;1160;-73
2023/10/12 11:17:04;;;;;;;;;;;;;;;15.65;100.00;101260.03;5054012;28;1539;-73
2023/10/12 11:19:33;;;;;;;;;;;;;;;15.71;100.00;101265.59;5047046;28;1302;-74
2023/10/12 11:21:58;;;;;;;;;;;;;;;15.73;100.00;101261.88;5054384;28;1065;-73
2023/10/12 11:24:24;;;;;;;;;;;;;;;15.75;100.00;101262.53;5049297;28;2086;-73
2023/10/12 11:26:54;;;;;;;;;;;;;;;15.78;100.00;101262.25;5043681;28;1149;-74
2023/10/12 11:29:19;;;;;;;;;;;;;;;15.80;100.00;101249.84;5047906;28;1076;-73
2023/10/12 11:32:09;;;;;;;;;;;;;;;15.83;100.00;101244.34;5046724;28;1183;-73
2023/10/12 11:34:35;;;;;;;;;;;;;;;15.85;100.00;101247.63;5044319;28;982;-73
2023/10/12 11:37:01;;;;;;;;;;;;;;;15.86;100.00;101244.03;5048230;28;1087;-73
2023/10/12 11:39:28;;;;;;;;;;;;;;;15.88;100.00;101243.88;5045907;28;1009;-73
2023/10/12 11:42:14;;;;;;;;;;;;;;;15.88;100.00;101247.31;5044364;28;1006;-73
2023/10/12 11:44:44;;;;;;;;;;;;;;;15.90;100.00;101237.53;5034588;28;1922;-73
2023/10/12 11:47:38;;;;;;;;;;;;;;;15.93;100.00;101228.53;5044187;28;2368;-74
2023/10/12 11:50:04;;;;;;;;;;;;;;;15.91;100.00;101220.84;5035892;28;1067;-73
2023/10/12 11:52:32;;;;;;;;;;;;;;;15.86;100.00;101220.47;5044985;28;1159;-75
2023/10/12 11:55:00;;;;;;;;;;;;;;;15.81;100.00;101240.22;5056310;28;1156;-73
2023/10/12 11:57:27;;;;;;;;;;;;;;;15.78;100.00;101236.13;5047893;28;1140;-73
2023/10/12 11:59:52;;;;;;;;;;;;;;;15.74;100.00;101224.28;5057661;28;1255;-75
2023/10/12 12:02:17;;;;;;;;;;;;;;;15.72;100.00;101226.25;5055965;28;1260;-73
2023/10/12 12:04:43;;;;;;;;;;;;;;;15.69;100.00;101226.53;5034382;28;1902;-75
2023/10/12 12:07:10;;;;;;;;;;;;;;;15.68;100.00;101230.13;5030219;28;1823;-74
2023/10/12 12:09:39;;;;;;;;;;;;;;;15.69;100.00;101239.59;5033292;28;1390;-73
2023/10/12 12:12:07;;;;;;;;;;;;;;;15.72;100.00;101241.13;5035015;28;1418;-73
2023/10/12 12:14:32;;;;;;;;;;;;;;;15.73;100.00;101245.38;5044209;28;1031;-74
2023/10/12 12:16:57;;;;;;;;;;;;;;;15.73;100.00;101233.13;5048074;28;1232;-74
2023/10/12 12:19:24;;;;;;;;;;;;;;;15.76;100.00;101224.13;5045195;28;1514;-74
2023/10/12 12:21:49;;;;;;;;;;;;;;;15.76;100.00;101217.13;5043695;28;1223;-73
2023/10/12 12:26:46;;;;;;;;;;;;;;;15.80;100.00;101213.22;5042796;28;1046;-74
2023/10/12 12:29:11;;;;;;;;;;;;;;;15.82;100.00;101215.69;5029106;28;1326;-76
2023/10/12 12:31:37;;;;;;;;;;;;;;;15.84;100.00;101219.00;5025585;28;1774;-73
2023/10/12 12:34:06;;;;;;;;;;;;;;;15.86;100.00;101223.09;5024786;28;1335;-75
2023/10/12 12:36:31;;;;;;;;;;;;;;;15.90;100.00;101202.69;5045682;28;1064;-73
2023/10/12 12:39:09;;;;;;;;;;;;;;;15.93;100.00;101207.63;5044299;28;1202;-74
2023/10/12 12:41:34;;;;;;;;;;;;;;;15.99;100.00;101199.16;5045980;28;1178;-74
2023/10/12 12:44:00;;;;;;;;;;;;;;;16.04;100.00;101194.31;5029430;28;1890;-76
2023/10/12 12:46:25;;;;;;;;;;;;;;;16.08;100.00;101200.06;5028051;28;1296;-74
2023/10/12 12:48:51;;;;;;;;;;;;;;;16.12;100.00;101214.50;5025395;28;1280;-74
2023/10/12 12:51:17;;;;;;;;;;;;;;;16.13;100.00;101203.06;5049887;28;1228;-75
2023/10/12 12:53:46;;;;;;;;;;;;;;;16.14;100.00;101199.47;5029567;28;1184;-74
2023/10/12 12:56:12;;;;;;;;;;;;;;;16.13;100.00;101187.34;5042864;28;1019;-73
2023/10/12 12:58:37;;;;;;;;;;;;;;;16.17;100.00;101186.91;5041235;28;949;-74
2023/10/12 13:01:03;;;;;;;;;;;;;;;16.20;100.00;101199.66;5058473;28;1304;-74
2023/10/12 13:03:28;;;;;;;;;;;;;;;16.22;100.00;101191.66;5055654;28;1903;-74
2023/10/12 13:05:54;;;;;;;;;;;;;;;16.24;100.00;101192.34;5057916;28;1175;-74
2023/10/12 13:08:19;;;;;;;;;;;;;;;16.26;100.00;101193.00;5028806;28;1387;-76
2023/10/12 13:10:44;;;;;;;;;;;;;;;16.27;100.00;101199.88;5051873;28;1100;-74
2023/10/12 13:13:09;;;;;;;;;;;;;;;16.25;100.00;101209.69;5045514;28;1082;-75
2023/10/12 13:15:41;;;;;;;;;;;;;;;16.25;100.00;101191.38;5047530;28;1119;-74
2023/10/12 13:18:14;;;;;;;;;;;;;;;16.23;100.00;101188.09;5042571;28;1714;-75
2023/10/12 13:20:40;;;;;;;;;;;;;;;16.22;100.00;101191.66;5051235;28;1229;-74
2023/10/12 13:23:09;;;;;;;;;;;;;;;16.19;100.00;101207.69;5032471;28;1647;-73
2023/10/12 13:25:36;;;;;;;;;;;;;;;16.16;100.00;101202.72;5042981;28;1203;-75
2023/10/12 13:28:01;;;;;;;;;;;;;;;16.14;100.00;101210.75;5046819;28;1267;-75
2023/10/12 13:30:26;;;;;;;;;;;;;;;16.12;100.00;101207.47;5031108;28;1281;-75
2023/10/12 13:32:59;;;;;;;;;;;;;;;16.09;100.00;101199.09;5033405;28;1391;-74
2023/10/12 13:35:41;;;;;;;;;;;;;;;16.09;100.00;101201.69;5045011;28;1226;-74
2023/10/12 13:38:09;;;;;;;;;;;;;;;16.06;100.00;101188.94;5032978;28;954;-74
2023/10/12 13:40:43;;;;;;;;;;;;;;;16.06;100.00;101202.03;5054971;28;1261;-74
2023/10/12 13:43:14;;;;;;;;;;;;;;;16.05;100.00;101195.13;5051644;28;1969;-75
2023/10/12 13:45:54;;;;;;;;;;;;;;;16.03;100.00;101191.84;5052201;28;1563;-74
2023/10/12 13:48:24;;;;;;;;;;;;;;;15.99;100.00;101186.09;5050124;28;1034;-75
2023/10/12 13:50:51;;;;;;;;;;;;;;;15.96;100.00;101175.94;5036192;28;1187;-75
2023/10/12 13:53:16;;;;;;;;;;;;;;;15.95;100.00;101178.72;5050726;28;1145;-75
2023/10/12 13:55:45;;;;;;;;;;;;;;;15.93;100.00;101190.13;5050030;28;1254;-75
2023/10/12 13:58:11;;;;;;;;;;;;;;;15.91;100.00;101197.31;5043322;28;2411;-74
2023/10/12 14:00:37;;;;;;;;;;;;;;;15.90;100.00;101195.69;5038956;28;2100;-75
2023/10/12 14:03:10;;;;;;;;;;;;;;;15.87;100.00;101195.97;5038290;28;1906;-74
2023/10/12 14:05:40;;;;;;;;;;;;;;;15.85;100.00;101190.06;5042375;28;2313;-75
2023/10/12 14:08:05;;;;;;;;;;;;;;;15.85;100.00;101197.91;5046330;28;1264;-76
2023/10/12 14:10:30;;;;;;;;;;;;;;;15.84;100.00;101204.13;5051970;28;1342;-76
2023/10/12 14:12:59;;;;;;;;;;;;;;;15.85;100.00;101210.19;5062976;23;1641;-75
2023/10/12 14:15:27;;;;;;;;;;;;;;;15.83;100.00;101212.94;5046102;28;1271;-75
2023/10/12 14:17:54;;;;;;;;;;;;;;;15.79;100.00;101229.09;5047531;28;1349;-74
2023/10/12 14:20:29;;;;;;;;;;;;;;;15.74;100.00;101239.97;5050634;28;1258;-76
2023/10/12 14:22:55;;;;;;;;;;;;;;;15.73;100.00;101234.91;5049544;28;1330;-76
2023/10/12 14:25:26;;;;;;;;;;;;;;;15.73;100.00;101214.00;5047302;28;1961;-74
2023/10/12 14:27:51;;;;;;;;;;;;;;;15.73;100.00;101206.97;5045191;28;1247;-75
2023/10/12 14:30:17;;;;;;;;;;;;;;;15.74;100.00;101198.16;5054977;28;1435;-77
2023/10/12 14:32:42;;;;;;;;;;;;;;;15.74;100.00;101213.84;5072168;28;1487;-75
2023/10/12 14:35:09;;;;;;;;;;;;;;;15.75;100.00;101202.41;5049411;28;1277;-74
2023/10/12 14:37:36;;;;;;;;;;;;;;;15.75;100.00;101189.31;5051555;28;1239;-76
2023/10/12 14:40:04;;;;;;;;;;;;;;;15.76;100.00;101184.91;5051662;28;2417;-75
2023/10/12 14:42:29;;;;;;;;;;;;;;;15.76;100.00;101190.97;5048846;28;1402;-74
2023/10/12 14:44:55;;;;;;;;;;;;;;;15.75;100.00;101196.34;5053831;28;2004;-75
2023/10/12 14:47:20;;;;;;;;;;;;;;;15.74;100.00;101192.09;5054957;28;1218;-75
2023/10/12 14:49:47;;;;;;;;;;;;;;;15.73;100.00;101185.22;5054230;28;1212;-76
2023/10/12 14:52:13;;;;;;;;;;;;;;;15.70;100.00;101186.31;5051210;28;1071;-74